Ty Lotus — DSNU7 — position and weather

sailwx.info

Track history (hours):
 
Tides and Currents Weather Stations Pressure Air Temp Water Temp Dewpoint Dewpoint Depression Visibility Wind Speed Wind Dir Waves Ship Positions

Ty Lotus

Last reported at 2016-Jun-25 00:28 UTC. Time now 2016-Jun-26 13:52 UTC.
Position N 34°05' E 134°52'.

Length 80 m; draft 4 m.

Type: Cargo ship. MMSI: 440324000.

Date/timePositionNaut miles runAvg speedWind from/ knotsBaromVisibWave heightAir tempDewpointWater temp
2016-Jun-25 00:28N 34°05' E 134°52'8 9.4
2016-Jun-24 23:33N 34°12' E 134°58'9 8.1
2016-Jun-24 22:28N 34°21' E 134°60'1010.9
2016-Jun-24 21:32N 34°31' E 135°03'  
2016-Jun-20 04:18N 36°42' E 124°02'4010.5
2016-Jun-20 00:29N 37°15' E 123°33'9 9.4
2016-Jun-19 23:33N 37°22' E 123°27'9 8.8
2016-Jun-19 22:33N 37°29' E 123°20'9 8.3
2016-Jun-19 21:31N 37°37' E 123°15'9 8.4
2016-Jun-19 20:24N 37°43' E 123°06'8 9.4
2016-Jun-19 19:33N 37°46' E 122°56'10 9.9
2016-Jun-19 18:31N 37°50' E 122°45'7610.6
2016-Jun-19 11:22N 38°24' E 121°18'107 9.8
2016-Jun-19 00:23N 39°46' E 119°49'810.2
2016-Jun-18 23:33N 39°53' E 119°43'3 3.2
2016-Jun-18 22:28N 39°56' E 119°42'0 0.0
2016-Jun-18 12:28N 39°56' E 119°42'0 0.0
2016-Jun-18 11:28N 39°56' E 119°42'0 0.0
2016-Jun-18 10:28N 39°56' E 119°42'0 0.0
2016-Jun-18 09:28N 39°56' E 119°42'0 0.0
2016-Jun-18 08:28N 39°56' E 119°42'0 0.0
2016-Jun-18 07:28N 39°56' E 119°42'0 0.0
2016-Jun-18 06:28N 39°56' E 119°42'0 0.2
2016-Jun-18 05:33N 39°56' E 119°42'5 4.6
2016-Jun-18 04:33N 39°52' E 119°45'0 0.1
2016-Jun-18 03:32N 39°52' E 119°45'0 0.0
2016-Jun-18 00:32N 39°52' E 119°45'0 0.0
2016-Jun-17 23:26N 39°52' E 119°45'0 0.1
2016-Jun-17 22:32N 39°52' E 119°45'0 0.1
2016-Jun-17 21:32N 39°52' E 119°45'0 0.1
2016-Jun-17 20:32N 39°52' E 119°45'0 0.0
2016-Jun-17 18:32N 39°52' E 119°45'0 0.0
2016-Jun-17 17:14N 39°52' E 119°45'0 0.0
2016-Jun-17 15:32N 39°52' E 119°45'0 0.0
2016-Jun-17 14:23N 39°52' E 119°45'0 0.0
2016-Jun-17 13:29N 39°52' E 119°45'0 0.1
2016-Jun-17 12:31N 39°52' E 119°45'0 0.0
2016-Jun-17 11:26N 39°52' E 119°45'0 0.0
2016-Jun-17 10:14N 39°52' E 119°45'0 0.0
2016-Jun-17 09:20N 39°52' E 119°45'0 0.1
2016-Jun-17 08:26N 39°52' E 119°45'0 0.1
2016-Jun-17 07:32N 39°52' E 119°45'0 0.0
2016-Jun-17 06:26N 39°52' E 119°45'0 0.0
2016-Jun-17 05:32N 39°52' E 119°45'0 0.0
2016-Jun-17 04:26N 39°52' E 119°45'0 0.0
2016-Jun-17 02:14N 39°52' E 119°45'0 0.0
2016-Jun-17 01:26N 39°52' E 119°45'0 0.0
2016-Jun-17 00:08N 39°52' E 119°45'0 0.0
2016-Jun-16 22:26N 39°52' E 119°45'0 0.0
2016-Jun-16 21:26N 39°52' E 119°45'0 0.0
2016-Jun-16 20:20N 39°52' E 119°45'0 0.0
2016-Jun-16 19:32N 39°52' E 119°45'0 0.0
2016-Jun-16 18:32N 39°52' E 119°45'0 0.0
2016-Jun-16 17:26N 39°52' E 119°45'0 0.0
2016-Jun-16 16:32N 39°52' E 119°45'0 0.1
2016-Jun-16 15:32N 39°52' E 119°45'0 0.0
2016-Jun-16 12:16N 39°52' E 119°45'0 0.1
2016-Jun-16 11:22N 39°52' E 119°45'0 0.0
2016-Jun-16 10:22N 39°52' E 119°45'0 0.0
2016-Jun-16 09:28N 39°52' E 119°45'0 0.0
2016-Jun-16 08:28N 39°52' E 119°45'0 0.0
2016-Jun-16 07:28N 39°52' E 119°45'0 0.0
2016-Jun-16 06:22N 39°52' E 119°45'0 0.0
2016-Jun-16 05:28N 39°52' E 119°45'0 0.0
2016-Jun-16 03:10N 39°52' E 119°45'0 0.0
2016-Jun-16 01:28N 39°52' E 119°45'0 0.0
2016-Jun-16 00:22N 39°52' E 119°45'0 0.0
2016-Jun-15 23:28N 39°52' E 119°45'0 0.0
2016-Jun-15 22:28N 39°52' E 119°45'0 0.0
2016-Jun-15 21:25N 39°52' E 119°45'  
Track history (hours):
 
Tides and Currents Weather Stations Pressure Air Temp Water Temp Dewpoint Dewpoint Depression Visibility Wind Speed Wind Dir Waves Ship Positions

Ty Lotus

Last reported at 2016-Jun-25 00:28 UTC. Time now 2016-Jun-26 13:52 UTC.
Position N 34°05' E 134°52'.

Length 80 m; draft 4 m.

Type: Cargo ship. MMSI: 440324000.

Date/timePositionNaut miles runAvg speedWind from/ knotsBaromVisibWave heightAir tempDewpointWater temp
2016-Jun-25 00:28N 34°05' E 134°52'8 9.4
2016-Jun-24 23:33N 34°12' E 134°58'9 8.1
2016-Jun-24 22:28N 34°21' E 134°60'1010.9
2016-Jun-24 21:32N 34°31' E 135°03'  
2016-Jun-20 04:18N 36°42' E 124°02'4010.5
2016-Jun-20 00:29N 37°15' E 123°33'9 9.4
2016-Jun-19 23:33N 37°22' E 123°27'9 8.8
2016-Jun-19 22:33N 37°29' E 123°20'9 8.3
2016-Jun-19 21:31N 37°37' E 123°15'9 8.4
2016-Jun-19 20:24N 37°43' E 123°06'8 9.4
2016-Jun-19 19:33N 37°46' E 122°56'10 9.9
2016-Jun-19 18:31N 37°50' E 122°45'7610.6
2016-Jun-19 11:22N 38°24' E 121°18'107 9.8
2016-Jun-19 00:23N 39°46' E 119°49'810.2
2016-Jun-18 23:33N 39°53' E 119°43'3 3.2
2016-Jun-18 22:28N 39°56' E 119°42'0 0.0
2016-Jun-18 12:28N 39°56' E 119°42'0 0.0
2016-Jun-18 11:28N 39°56' E 119°42'0 0.0
2016-Jun-18 10:28N 39°56' E 119°42'0 0.0
2016-Jun-18 09:28N 39°56' E 119°42'0 0.0
2016-Jun-18 08:28N 39°56' E 119°42'0 0.0
2016-Jun-18 07:28N 39°56' E 119°42'0 0.0
2016-Jun-18 06:28N 39°56' E 119°42'0 0.2
2016-Jun-18 05:33N 39°56' E 119°42'5 4.6
2016-Jun-18 04:33N 39°52' E 119°45'0 0.1
2016-Jun-18 03:32N 39°52' E 119°45'0 0.0
2016-Jun-18 00:32N 39°52' E 119°45'0 0.0
2016-Jun-17 23:26N 39°52' E 119°45'0 0.1
2016-Jun-17 22:32N 39°52' E 119°45'0 0.1
2016-Jun-17 21:32N 39°52' E 119°45'0 0.1
2016-Jun-17 20:32N 39°52' E 119°45'0 0.0
2016-Jun-17 18:32N 39°52' E 119°45'0 0.0
2016-Jun-17 17:14N 39°52' E 119°45'0 0.0
2016-Jun-17 15:32N 39°52' E 119°45'0 0.0
2016-Jun-17 14:23N 39°52' E 119°45'0 0.0
2016-Jun-17 13:29N 39°52' E 119°45'0 0.1
2016-Jun-17 12:31N 39°52' E 119°45'0 0.0
2016-Jun-17 11:26N 39°52' E 119°45'0 0.0
2016-Jun-17 10:14N 39°52' E 119°45'0 0.0
2016-Jun-17 09:20N 39°52' E 119°45'0 0.1
2016-Jun-17 08:26N 39°52' E 119°45'0 0.1
2016-Jun-17 07:32N 39°52' E 119°45'0 0.0
2016-Jun-17 06:26N 39°52' E 119°45'0 0.0
2016-Jun-17 05:32N 39°52' E 119°45'0 0.0
2016-Jun-17 04:26N 39°52' E 119°45'0 0.0
2016-Jun-17 02:14N 39°52' E 119°45'0 0.0
2016-Jun-17 01:26N 39°52' E 119°45'0 0.0
2016-Jun-17 00:08N 39°52' E 119°45'0 0.0
2016-Jun-16 22:26N 39°52' E 119°45'0 0.0
2016-Jun-16 21:26N 39°52' E 119°45'0 0.0
2016-Jun-16 20:20N 39°52' E 119°45'0 0.0
2016-Jun-16 19:32N 39°52' E 119°45'0 0.0
2016-Jun-16 18:32N 39°52' E 119°45'0 0.0
2016-Jun-16 17:26N 39°52' E 119°45'0 0.0
2016-Jun-16 16:32N 39°52' E 119°45'0 0.1
2016-Jun-16 15:32N 39°52' E 119°45'0 0.0
2016-Jun-16 12:16N 39°52' E 119°45'0 0.1
2016-Jun-16 11:22N 39°52' E 119°45'0 0.0
2016-Jun-16 10:22N 39°52' E 119°45'0 0.0
2016-Jun-16 09:28N 39°52' E 119°45'0 0.0
2016-Jun-16 08:28N 39°52' E 119°45'0 0.0
2016-Jun-16 07:28N 39°52' E 119°45'0 0.0
2016-Jun-16 06:22N 39°52' E 119°45'0 0.0
2016-Jun-16 05:28N 39°52' E 119°45'0 0.0
2016-Jun-16 03:10N 39°52' E 119°45'0 0.0
2016-Jun-16 01:28N 39°52' E 119°45'0 0.0
2016-Jun-16 00:22N 39°52' E 119°45'0 0.0
2016-Jun-15 23:28N 39°52' E 119°45'0 0.0
2016-Jun-15 22:28N 39°52' E 119°45'0 0.0
2016-Jun-15 21:25N 39°52' E 119°45'  

Dump ship's entire track history